Time;durP1;ratioP1;P1;durP2;ratioP2;P2;SDS_P1;SDS_P2;PMS_P1;PMS_P2;Temp;Humidity;BMP_temperature;BMP_pressure;BME280_temperature;BME280_humidity;BME280_pressure;Samples;Min_cycle;Max_cycle;Signal;HPM_P1;HPM_P2
2023/11/02 00:00:56;;;;;;;19.70;18.40;;;;;;;;;;5119960;28;20487;-82
2023/11/02 00:03:30;;;;;;;18.47;17.57;;;;;;;;;;5119861;28;20436;-82
2023/11/02 00:06:17;;;;;;;18.43;17.43;;;;;;;;;;5119351;28;20464;-82
2023/11/02 00:08:46;;;;;;;18.70;17.60;;;;;;;;;;5119553;28;20467;-82
2023/11/02 00:11:28;;;;;;;18.80;17.70;;;;;;;;;;5119952;28;20443;-82
2023/11/02 00:13:56;;;;;;;19.10;17.50;;;;;;;;;;5117592;28;20452;-81
2023/11/02 00:16:23;;;;;;;18.53;17.53;;;;;;;;;;5123117;27;20439;-82
2023/11/02 00:18:50;;;;;;;18.60;17.50;;;;;;;;;;5123266;27;20831;-82
2023/11/02 00:21:21;;;;;;;17.83;16.83;;;;;;;;;;5138506;27;20605;-82
2023/11/02 00:23:48;;;;;;;18.30;17.20;;;;;;;;;;5139012;27;20422;-83
2023/11/02 00:26:19;;;;;;;18.13;16.97;;;;;;;;;;5138985;27;21252;-81
2023/11/02 00:28:46;;;;;;;18.70;17.70;;;;;;;;;;5139974;27;20433;-81
2023/11/02 00:31:14;;;;;;;18.27;17.17;;;;;;;;;;5140043;27;20470;-82
2023/11/02 00:33:42;;;;;;;18.80;17.70;;;;;;;;;;5139600;27;20534;-82
2023/11/02 00:36:11;;;;;;;20.17;19.00;;;;;;;;;;5139604;27;20447;-82
2023/11/02 00:38:38;;;;;;;18.43;17.43;;;;;;;;;;5139194;27;20459;-82
2023/11/02 00:41:05;;;;;;;18.10;17.00;;;;;;;;;;5139281;27;20482;-82
2023/11/02 00:43:33;;;;;;;19.03;17.47;;;;;;;;;;5139868;27;20435;-82
2023/11/02 00:46:00;;;;;;;19.50;18.20;;;;;;;;;;5138501;27;20778;-81
2023/11/02 00:48:32;;;;;;;17.87;16.87;;;;;;;;;;5139084;27;20483;-82
2023/11/02 00:51:26;;;;;;;19.30;17.90;;;;;;;;;;5139496;27;20475;-82
2023/11/02 00:53:54;;;;;;;19.00;17.70;;;;;;;;;;5139140;27;20475;-82
2023/11/02 00:56:22;;;;;;;18.43;17.43;;;;;;;;;;5138633;27;20495;-81
2023/11/02 00:58:50;;;;;;;18.60;17.40;;;;;;;;;;5139259;27;20463;-81
2023/11/02 01:01:18;;;;;;;18.87;17.77;;;;;;;;;;5139327;27;20457;-82
2023/11/02 01:03:51;;;;;;;18.83;17.73;;;;;;;;;;5138951;28;20414;-82
2023/11/02 01:06:19;;;;;;;18.47;17.53;;;;;;;;;;5139171;28;21171;-81
2023/11/02 01:08:50;;;;;;;18.30;17.30;;;;;;;;;;5139869;28;20516;-82
2023/11/02 01:11:17;;;;;;;18.83;17.93;;;;;;;;;;5139438;28;20432;-82
2023/11/02 01:13:44;;;;;;;18.53;17.47;;;;;;;;;;5120685;28;20434;-83
2023/11/02 01:16:11;;;;;;;19.83;18.63;;;;;;;;;;5118720;28;20419;-82
2023/11/02 01:18:41;;;;;;;18.80;17.80;;;;;;;;;;5118186;28;20476;-81
2023/11/02 01:21:09;;;;;;;19.00;18.00;;;;;;;;;;5118538;28;20468;-82
2023/11/02 01:23:37;;;;;;;19.43;18.23;;;;;;;;;;5118133;28;20407;-82
2023/11/02 01:26:05;;;;;;;18.97;17.80;;;;;;;;;;5118297;28;20519;-82
2023/11/02 01:28:53;;;;;;;18.40;17.40;;;;;;;;;;5118506;28;20450;-82
2023/11/02 01:31:21;;;;;;;18.73;17.73;;;;;;;;;;5118729;28;20426;-82
2023/11/02 01:33:58;;;;;;;18.50;17.40;;;;;;;;;;5121899;28;20426;-83
2023/11/02 01:36:34;;;;;;;19.00;17.80;;;;;;;;;;5122426;28;20461;-81
2023/11/02 01:39:02;;;;;;;19.20;18.10;;;;;;;;;;5122463;28;20454;-82
2023/11/02 01:41:33;;;;;;;18.73;17.73;;;;;;;;;;5122751;28;21009;-82
2023/11/02 01:44:04;;;;;;;19.60;18.57;;;;;;;;;;5121885;28;21227;-82
2023/11/02 01:46:36;;;;;;;18.83;17.83;;;;;;;;;;5122144;28;20403;-81
2023/11/02 01:49:08;;;;;;;19.20;18.20;;;;;;;;;;5122373;28;20485;-81
2023/11/02 01:51:40;;;;;;;19.20;18.10;;;;;;;;;;5122272;28;20828;-82
2023/11/02 01:54:12;;;;;;;19.67;18.57;;;;;;;;;;5122330;28;20410;-82
2023/11/02 01:56:44;;;;;;;19.17;18.07;;;;;;;;;;5126150;27;20413;-82
2023/11/02 01:59:17;;;;;;;18.93;17.93;;;;;;;;;;5143139;27;20764;-82
2023/11/02 02:01:49;;;;;;;19.47;18.17;;;;;;;;;;5142276;27;20445;-82
2023/11/02 02:04:20;;;;;;;19.60;18.60;;;;;;;;;;5141566;27;20869;-82
2023/11/02 02:06:59;;;;;;;19.07;17.90;;;;;;;;;;5142201;27;20431;-82
2023/11/02 02:09:31;;;;;;;19.10;18.00;;;;;;;;;;5142454;27;20450;-82
2023/11/02 02:12:01;;;;;;;19.43;18.40;;;;;;;;;;5141575;27;20431;-82
2023/11/02 02:14:33;;;;;;;19.30;18.10;;;;;;;;;;5141587;27;20418;-81
2023/11/02 02:17:03;;;;;;;19.70;18.40;;;;;;;;;;5142526;27;21162;-82
2023/11/02 02:19:40;;;;;;;19.07;18.13;;;;;;;;;;5142412;27;20453;-82
2023/11/02 02:22:10;;;;;;;19.40;18.30;;;;;;;;;;5141756;27;21021;-82
2023/11/02 02:24:44;;;;;;;19.23;17.50;;;;;;;;;;5141720;27;20834;-83
2023/11/02 02:27:29;;;;;;;18.30;17.30;;;;;;;;;;5142091;27;20422;-82
2023/11/02 02:30:09;;;;;;;18.83;17.83;;;;;;;;;;5142192;27;20410;-81
2023/11/02 02:32:45;;;;;;;18.60;17.70;;;;;;;;;;5142177;27;20454;-83
2023/11/02 02:35:14;;;;;;;18.50;17.60;;;;;;;;;;5141787;27;20451;-82
2023/11/02 02:37:45;;;;;;;18.20;17.20;;;;;;;;;;5141716;27;20467;-82
2023/11/02 02:40:15;;;;;;;19.27;17.77;;;;;;;;;;5141701;27;20524;-81
2023/11/02 02:42:43;;;;;;;18.20;17.30;;;;;;;;;;5141395;27;20427;-82
2023/11/02 02:45:10;;;;;;;18.13;17.13;;;;;;;;;;5140587;27;20439;-82
2023/11/02 02:47:38;;;;;;;18.17;17.17;;;;;;;;;;5141380;27;20958;-82
2023/11/02 02:52:51;;;;;;;18.70;17.50;;;;;;;;;;5095359;28;20444;-83
2023/11/02 02:55:19;;;;;;;19.00;18.10;;;;;;;;;;5141092;27;20451;-82
2023/11/02 02:57:47;;;;;;;18.30;17.40;;;;;;;;;;5140897;27;20478;-82
2023/11/02 03:00:16;;;;;;;18.77;17.70;;;;;;;;;;5141738;27;20443;-82
2023/11/02 03:02:44;;;;;;;18.47;17.57;;;;;;;;;;5141008;27;20479;-82
2023/11/02 03:08:17;;;;;;;18.27;17.37;;;;;;;;;;5138706;27;20452;-82
2023/11/02 03:10:46;;;;;;;19.37;18.10;;;;;;;;;;5141088;27;20422;-83
2023/11/02 03:13:14;;;;;;;19.23;18.13;;;;;;;;;;5140901;27;20474;-82
2023/11/02 03:15:46;;;;;;;19.20;17.90;;;;;;;;;;5140575;27;20468;-81
2023/11/02 03:21:16;;;;;;;18.23;17.40;;;;;;;;;;5138996;27;20590;-82
2023/11/02 03:23:47;;;;;;;18.77;17.73;;;;;;;;;;5140138;27;20436;-81
2023/11/02 03:26:19;;;;;;;17.93;17.03;;;;;;;;;;5141836;27;20421;-82
2023/11/02 03:28:49;;;;;;;18.37;17.37;;;;;;;;;;5140755;27;20449;-82
2023/11/02 03:31:22;;;;;;;18.33;17.30;;;;;;;;;;5140945;27;20425;-82
2023/11/02 03:33:59;;;;;;;18.17;17.20;;;;;;;;;;5140405;27;20516;-81
2023/11/02 03:36:32;;;;;;;19.53;18.23;;;;;;;;;;5140788;27;20750;-82
2023/11/02 03:39:07;;;;;;;18.17;17.17;;;;;;;;;;5140368;27;20429;-82
2023/11/02 03:41:41;;;;;;;18.90;17.70;;;;;;;;;;5140260;27;20461;-82
2023/11/02 03:44:14;;;;;;;18.10;17.10;;;;;;;;;;5140369;27;20417;-82
2023/11/02 03:46:47;;;;;;;18.03;17.03;;;;;;;;;;5140771;27;20415;-82
2023/11/02 03:49:22;;;;;;;18.90;17.60;;;;;;;;;;5140396;27;20761;-82
2023/11/02 03:51:53;;;;;;;18.50;17.60;;;;;;;;;;5140110;27;20400;-82
2023/11/02 03:54:31;;;;;;;18.23;17.00;;;;;;;;;;5140208;27;20454;-82
2023/11/02 03:57:03;;;;;;;17.77;16.70;;;;;;;;;;5140042;27;20467;-81
2023/11/02 03:59:34;;;;;;;17.10;16.30;;;;;;;;;;5140096;27;20459;-81
2023/11/02 04:02:02;;;;;;;18.03;17.00;;;;;;;;;;5139815;27;20437;-83
2023/11/02 04:04:35;;;;;;;17.57;16.47;;;;;;;;;;5139835;27;20438;-82
2023/11/02 04:07:03;;;;;;;17.53;16.37;;;;;;;;;;5140819;27;20967;-82
2023/11/02 04:09:36;;;;;;;18.47;17.20;;;;;;;;;;5140771;27;20494;-82
2023/11/02 04:12:09;;;;;;;17.43;16.43;;;;;;;;;;5140293;27;20413;-82
2023/11/02 04:14:37;;;;;;;18.07;17.17;;;;;;;;;;5139326;27;20394;-82
2023/11/02 04:17:04;;;;;;;17.77;16.77;;;;;;;;;;5140504;27;20482;-82
2023/11/02 04:19:31;;;;;;;17.77;16.77;;;;;;;;;;5140535;27;20458;-81
2023/11/02 04:21:58;;;;;;;18.13;16.93;;;;;;;;;;5139939;27;20520;-82
2023/11/02 04:24:28;;;;;;;18.43;17.23;;;;;;;;;;5138979;27;20436;-83
2023/11/02 04:26:56;;;;;;;18.23;16.73;;;;;;;;;;5140234;27;20531;-82
2023/11/02 04:29:23;;;;;;;17.03;16.23;;;;;;;;;;5139430;27;20446;-81
2023/11/02 04:31:50;;;;;;;17.90;17.00;;;;;;;;;;5139447;27;20414;-82
2023/11/02 04:34:17;;;;;;;17.67;16.87;;;;;;;;;;5139545;27;20414;-82
2023/11/02 04:36:44;;;;;;;18.43;17.20;;;;;;;;;;5139579;27;20897;-82
2023/11/02 04:39:11;;;;;;;18.20;17.13;;;;;;;;;;5139202;27;20442;-81
2023/11/02 04:41:38;;;;;;;18.10;17.10;;;;;;;;;;5139717;27;20482;-82
2023/11/02 04:44:07;;;;;;;18.03;17.13;;;;;;;;;;5139545;27;20445;-83
2023/11/02 04:46:34;;;;;;;20.37;18.97;;;;;;;;;;5139449;27;20453;-82
2023/11/02 04:49:01;;;;;;;19.20;17.73;;;;;;;;;;5139631;27;20457;-82
2023/11/02 04:51:29;;;;;;;18.93;17.90;;;;;;;;;;5139287;27;20418;-81
2023/11/02 04:53:56;;;;;;;18.80;17.73;;;;;;;;;;5138974;27;20454;-82
2023/11/02 04:56:23;;;;;;;18.87;17.90;;;;;;;;;;5139349;27;20435;-82
2023/11/02 04:58:50;;;;;;;18.13;17.23;;;;;;;;;;5138889;27;20509;-82
2023/11/02 05:01:19;;;;;;;19.73;18.60;;;;;;;;;;5139182;27;20482;-81
2023/11/02 05:03:46;;;;;;;20.00;18.50;;;;;;;;;;5138912;27;20439;-82
2023/11/02 05:06:14;;;;;;;18.60;17.50;;;;;;;;;;5138748;27;20827;-82
2023/11/02 05:08:41;;;;;;;19.20;18.10;;;;;;;;;;5139611;28;20470;-82
2023/11/02 05:11:08;;;;;;;18.70;17.60;;;;;;;;;;5139095;28;20435;-82
2023/11/02 05:13:35;;;;;;;18.93;17.60;;;;;;;;;;5139177;28;20863;-82
2023/11/02 05:16:02;;;;;;;18.80;17.70;;;;;;;;;;5138707;28;20557;-82
2023/11/02 05:18:30;;;;;;;19.30;18.00;;;;;;;;;;5139594;28;20448;-82
2023/11/02 05:20:59;;;;;;;18.17;17.10;;;;;;;;;;5139302;28;20542;-82
2023/11/02 05:23:26;;;;;;;18.77;17.77;;;;;;;;;;5138805;28;20426;-81
2023/11/02 05:25:54;;;;;;;18.57;17.67;;;;;;;;;;5139290;28;21338;-82
2023/11/02 05:28:21;;;;;;;19.07;18.07;;;;;;;;;;5139148;28;20467;-82
2023/11/02 05:30:49;;;;;;;20.10;18.80;;;;;;;;;;5138958;28;20435;-82
2023/11/02 05:33:16;;;;;;;18.60;17.60;;;;;;;;;;5138931;28;20481;-82
2023/11/02 05:35:44;;;;;;;18.67;17.57;;;;;;;;;;5138115;28;20919;-82
2023/11/02 05:38:11;;;;;;;18.47;17.43;;;;;;;;;;5138506;28;20462;-82
2023/11/02 05:40:38;;;;;;;19.13;18.03;;;;;;;;;;5138349;27;20500;-82
2023/11/02 05:43:05;;;;;;;19.47;18.33;;;;;;;;;;5139223;28;20438;-81
2023/11/02 05:45:32;;;;;;;19.67;18.47;;;;;;;;;;5138509;28;20554;-82
2023/11/02 05:48:00;;;;;;;18.70;17.70;;;;;;;;;;5139045;28;20454;-82
2023/11/02 05:50:27;;;;;;;18.87;17.87;;;;;;;;;;5138504;28;20413;-82
2023/11/02 05:52:55;;;;;;;19.67;18.10;;;;;;;;;;5139121;28;20451;-82
2023/11/02 05:55:22;;;;;;;19.13;17.73;;;;;;;;;;5138463;28;20431;-81
2023/11/02 05:57:49;;;;;;;20.63;19.20;;;;;;;;;;5138809;28;20459;-82
2023/11/02 06:00:16;;;;;;;18.73;17.70;;;;;;;;;;5139079;28;20450;-82
2023/11/02 06:02:44;;;;;;;18.73;17.73;;;;;;;;;;5138053;27;20502;-82
2023/11/02 06:05:11;;;;;;;17.87;16.83;;;;;;;;;;5138906;28;20429;-82
2023/11/02 06:07:38;;;;;;;18.57;17.37;;;;;;;;;;5138852;28;20422;-82
2023/11/02 06:10:07;;;;;;;19.17;17.77;;;;;;;;;;5139743;28;20426;-82
2023/11/02 06:12:34;;;;;;;18.07;17.17;;;;;;;;;;5138913;27;20561;-81
2023/11/02 06:15:01;;;;;;;18.37;17.27;;;;;;;;;;5137941;28;20417;-82
2023/11/02 06:17:28;;;;;;;18.60;17.60;;;;;;;;;;5138434;27;20441;-81
2023/11/02 06:19:55;;;;;;;18.90;17.80;;;;;;;;;;5140837;27;20888;-81
2023/11/02 06:22:22;;;;;;;19.90;18.27;;;;;;;;;;5142287;27;20502;-81
2023/11/02 06:24:49;;;;;;;17.90;17.00;;;;;;;;;;5141970;27;20421;-81
2023/11/02 06:27:17;;;;;;;18.70;17.73;;;;;;;;;;5142962;27;20467;-82
2023/11/02 06:29:44;;;;;;;20.10;18.80;;;;;;;;;;5142040;27;20410;-81
2023/11/02 06:32:12;;;;;;;18.97;17.87;;;;;;;;;;5142619;27;20809;-81
2023/11/02 06:34:39;;;;;;;19.13;18.10;;;;;;;;;;5141810;27;20443;-82
2023/11/02 06:37:08;;;;;;;18.90;17.90;;;;;;;;;;5142703;27;20495;-82
2023/11/02 06:39:36;;;;;;;19.07;17.97;;;;;;;;;;5142151;27;20467;-82
2023/11/02 06:42:03;;;;;;;18.63;17.70;;;;;;;;;;5141200;27;20529;-82
2023/11/02 06:44:32;;;;;;;20.07;18.80;;;;;;;;;;5141184;27;20454;-82
2023/11/02 06:46:59;;;;;;;19.90;18.70;;;;;;;;;;5142247;27;20440;-82
2023/11/02 06:49:26;;;;;;;19.80;18.70;;;;;;;;;;5141537;27;20446;-82
2023/11/02 06:51:53;;;;;;;20.07;18.77;;;;;;;;;;5141916;27;20450;-81
2023/11/02 06:54:20;;;;;;;19.67;18.37;;;;;;;;;;5140859;27;20880;-83
2023/11/02 06:56:47;;;;;;;20.47;19.27;;;;;;;;;;5141682;27;20503;-82
2023/11/02 06:59:14;;;;;;;20.83;19.63;;;;;;;;;;5142222;27;20426;-82
2023/11/02 07:01:44;;;;;;;20.77;19.57;;;;;;;;;;5141499;27;20479;-83
2023/11/02 07:04:11;;;;;;;19.60;18.50;;;;;;;;;;5135316;27;20906;-83
2023/11/02 07:06:38;;;;;;;20.30;18.87;;;;;;;;;;5140890;27;20429;-82
2023/11/02 07:09:06;;;;;;;20.10;18.80;;;;;;;;;;5128268;27;21116;-81
2023/11/02 07:11:33;;;;;;;19.30;18.20;;;;;;;;;;5122458;27;20454;-78
2023/11/02 07:14:00;;;;;;;19.80;18.63;;;;;;;;;;5115444;27;20819;-77
2023/11/02 07:16:27;;;;;;;20.50;19.00;;;;;;;;;;5134072;27;20451;-77
2023/11/02 07:18:58;;;;;;;19.93;18.53;;;;;;;;;;5133542;27;20450;-78
2023/11/02 07:21:25;;;;;;;18.97;17.97;;;;;;;;;;5134231;27;20867;-78
2023/11/02 07:23:52;;;;;;;19.20;18.20;;;;;;;;;;5133225;27;20447;-79
2023/11/02 07:26:19;;;;;;;18.97;17.97;;;;;;;;;;5133817;27;20454;-78
2023/11/02 07:28:46;;;;;;;18.80;17.80;;;;;;;;;;5136748;27;20470;-82
2023/11/02 07:31:13;;;;;;;19.80;18.73;;;;;;;;;;5139237;27;20458;-81
2023/11/02 07:33:41;;;;;;;19.57;18.37;;;;;;;;;;5141144;27;20429;-83
2023/11/02 07:36:11;;;;;;;19.63;18.53;;;;;;;;;;5138613;27;20428;-80
2023/11/02 07:38:39;;;;;;;19.50;18.27;;;;;;;;;;5141067;27;20463;-82
2023/11/02 07:41:07;;;;;;;19.53;18.33;;;;;;;;;;5140950;27;20505;-83
2023/11/02 07:43:34;;;;;;;19.80;18.70;;;;;;;;;;5141820;27;20498;-83
2023/11/02 07:46:01;;;;;;;19.83;18.53;;;;;;;;;;5140113;27;20505;-83
2023/11/02 07:48:29;;;;;;;19.63;18.63;;;;;;;;;;5140921;27;20437;-83
2023/11/02 07:50:56;;;;;;;19.40;18.30;;;;;;;;;;5141471;27;20454;-84
2023/11/02 07:53:24;;;;;;;19.77;18.57;;;;;;;;;;5141852;27;20466;-84
2023/11/02 07:55:51;;;;;;;20.90;19.50;;;;;;;;;;5140373;27;20960;-84
2023/11/02 07:58:18;;;;;;;19.90;18.70;;;;;;;;;;5136699;27;20516;-83
2023/11/02 08:00:45;;;;;;;19.10;18.00;;;;;;;;;;5137713;27;20457;-82
2023/11/02 08:03:12;;;;;;;19.40;18.40;;;;;;;;;;5130235;27;20479;-82
2023/11/02 08:05:40;;;;;;;19.27;18.27;;;;;;;;;;5138754;27;20417;-81
2023/11/02 08:08:07;;;;;;;19.60;18.50;;;;;;;;;;5133135;27;20514;-82
2023/11/02 08:10:35;;;;;;;19.80;18.60;;;;;;;;;;5137458;27;20446;-81
2023/11/02 08:13:02;;;;;;;20.50;19.20;;;;;;;;;;5137331;27;20764;-82
2023/11/02 08:15:29;;;;;;;19.87;18.67;;;;;;;;;;5139238;27;21109;-81
2023/11/02 08:17:56;;;;;;;19.57;18.50;;;;;;;;;;5137331;27;20442;-81
2023/11/02 08:20:23;;;;;;;19.63;18.53;;;;;;;;;;5139519;27;20422;-82
2023/11/02 08:22:51;;;;;;;19.30;18.00;;;;;;;;;;5138685;27;20530;-82
2023/11/02 08:25:18;;;;;;;19.17;18.07;;;;;;;;;;5139169;27;20410;-83
2023/11/02 08:27:48;;;;;;;19.60;18.60;;;;;;;;;;5133031;27;20530;-83
2023/11/02 08:30:15;;;;;;;19.57;18.47;;;;;;;;;;5139178;27;20424;-83
2023/11/02 08:32:43;;;;;;;18.83;17.87;;;;;;;;;;5139171;27;20925;-81
2023/11/02 08:35:10;;;;;;;20.60;19.40;;;;;;;;;;5137393;27;20538;-81
2023/11/02 08:37:37;;;;;;;19.53;18.43;;;;;;;;;;5132368;27;20488;-81
2023/11/02 08:40:05;;;;;;;20.43;19.33;;;;;;;;;;5138480;27;20476;-82
2023/11/02 08:42:32;;;;;;;19.30;18.30;;;;;;;;;;5138243;27;20465;-82
2023/11/02 08:45:01;;;;;;;19.27;18.23;;;;;;;;;;5139178;27;20446;-83
2023/11/02 08:47:28;;;;;;;18.90;18.00;;;;;;;;;;5138579;27;20459;-83
2023/11/02 08:49:55;;;;;;;18.47;17.57;;;;;;;;;;5140426;27;20448;-80
2023/11/02 08:52:22;;;;;;;18.37;17.37;;;;;;;;;;5137963;27;20459;-82
2023/11/02 08:54:49;;;;;;;18.23;17.23;;;;;;;;;;5132955;27;20418;-81
2023/11/02 08:57:16;;;;;;;18.53;17.50;;;;;;;;;;5138472;27;20463;-80
2023/11/02 08:59:44;;;;;;;18.50;17.50;;;;;;;;;;5138692;27;20429;-81
2023/11/02 09:02:12;;;;;;;18.47;17.47;;;;;;;;;;5137998;27;20450;-82
2023/11/02 09:04:39;;;;;;;17.63;16.73;;;;;;;;;;5126590;28;20505;-81
2023/11/02 09:07:06;;;;;;;18.10;17.10;;;;;;;;;;5138990;28;20552;-80
2023/11/02 09:09:33;;;;;;;18.80;17.73;;;;;;;;;;5138126;28;20446;-80
2023/11/02 09:12:00;;;;;;;18.97;17.60;;;;;;;;;;5137897;28;20425;-80
2023/11/02 09:14:27;;;;;;;17.80;16.90;;;;;;;;;;5136640;28;20439;-82
2023/11/02 09:16:54;;;;;;;18.40;17.40;;;;;;;;;;5137886;28;20471;-81
2023/11/02 09:19:23;;;;;;;18.40;17.40;;;;;;;;;;5138154;28;20459;-81
2023/11/02 09:21:50;;;;;;;18.37;17.40;;;;;;;;;;5138022;28;20451;-81
2023/11/02 09:24:17;;;;;;;18.23;17.33;;;;;;;;;;5136805;28;20953;-81
2023/11/02 09:26:45;;;;;;;18.77;17.47;;;;;;;;;;5134888;28;20457;-81
2023/11/02 09:29:12;;;;;;;19.30;18.20;;;;;;;;;;5136224;28;20463;-81
2023/11/02 09:31:41;;;;;;;18.40;17.50;;;;;;;;;;5136451;28;20447;-82
2023/11/02 09:34:10;;;;;;;18.60;17.60;;;;;;;;;;5137888;28;20450;-81
2023/11/02 09:36:38;;;;;;;18.60;17.70;;;;;;;;;;5138045;28;20480;-81
2023/11/02 09:39:07;;;;;;;18.90;17.70;;;;;;;;;;5137342;27;20467;-82
2023/11/02 09:41:35;;;;;;;19.17;17.90;;;;;;;;;;5138083;27;20425;-81
2023/11/02 09:44:03;;;;;;;18.97;17.97;;;;;;;;;;5133763;28;20490;-82
2023/11/02 09:46:30;;;;;;;19.23;17.93;;;;;;;;;;5126453;28;20455;-81
2023/11/02 09:48:57;;;;;;;19.53;18.53;;;;;;;;;;5116539;28;20451;-81
2023/11/02 09:51:24;;;;;;;19.67;18.57;;;;;;;;;;5115595;28;20447;-81
2023/11/02 09:53:52;;;;;;;19.43;18.00;;;;;;;;;;5118256;28;20451;-81
2023/11/02 09:56:22;;;;;;;18.70;17.70;;;;;;;;;;5120545;28;20448;-82
2023/11/02 09:58:50;;;;;;;18.60;17.70;;;;;;;;;;5121031;28;20464;-82
2023/11/02 10:01:17;;;;;;;18.83;17.70;;;;;;;;;;5120778;28;20407;-82
2023/11/02 10:03:46;;;;;;;18.93;17.93;;;;;;;;;;5120080;28;20450;-82
2023/11/02 10:06:13;;;;;;;19.00;17.90;;;;;;;;;;5120352;28;20810;-80
2023/11/02 10:08:40;;;;;;;19.70;18.70;;;;;;;;;;5118000;28;20471;-81
2023/11/02 10:11:14;;;;;;;19.73;18.53;;;;;;;;;;5120118;28;20557;-78
2023/11/02 10:13:41;;;;;;;19.70;18.67;;;;;;;;;;5119435;28;20439;-81
2023/11/02 10:16:08;;;;;;;18.60;17.70;;;;;;;;;;5120286;28;20473;-83
2023/11/02 10:18:35;;;;;;;19.60;18.50;;;;;;;;;;5121735;28;20456;-85
2023/11/02 10:21:05;;;;;;;19.67;18.67;;;;;;;;;;5118205;28;20444;-80
2023/11/02 10:23:47;;;;;;;18.60;17.60;;;;;;;;;;5117785;28;20570;-83
2023/11/02 10:26:16;;;;;;;18.77;17.77;;;;;;;;;;5119906;28;20930;-83
2023/11/02 10:28:43;;;;;;;18.93;17.90;;;;;;;;;;5116037;28;20464;-81
2023/11/02 10:31:10;;;;;;;18.00;17.10;;;;;;;;;;5115417;28;20932;-84
2023/11/02 10:33:37;;;;;;;18.70;17.43;;;;;;;;;;5120787;28;20869;-85
2023/11/02 10:36:05;;;;;;;18.07;17.17;;;;;;;;;;5120288;28;20857;-81
2023/11/02 10:38:32;;;;;;;18.70;17.70;;;;;;;;;;5120529;28;20459;-82
2023/11/02 10:40:59;;;;;;;18.33;17.33;;;;;;;;;;5135580;27;20507;-81
2023/11/02 10:43:30;;;;;;;19.80;18.60;;;;;;;;;;5141616;27;20466;-82
2023/11/02 10:45:58;;;;;;;18.57;17.47;;;;;;;;;;5140549;27;20451;-82
2023/11/02 10:48:27;;;;;;;18.70;17.57;;;;;;;;;;5141261;27;20477;-83
2023/11/02 10:50:57;;;;;;;19.73;18.47;;;;;;;;;;5141517;27;20471;-81
2023/11/02 10:53:29;;;;;;;18.57;17.57;;;;;;;;;;5140711;27;20414;-81
2023/11/02 10:55:59;;;;;;;19.90;18.90;;;;;;;;;;5140644;27;20408;-81
2023/11/02 10:58:27;;;;;;;20.20;19.03;;;;;;;;;;5141480;27;20459;-82
2023/11/02 11:00:55;;;;;;;18.97;18.07;;;;;;;;;;5140897;27;20431;-81
2023/11/02 11:03:23;;;;;;;19.40;18.30;;;;;;;;;;5141339;27;20486;-82
2023/11/02 11:05:50;;;;;;;18.60;17.70;;;;;;;;;;5138954;27;20803;-82
2023/11/02 11:08:18;;;;;;;19.33;18.33;;;;;;;;;;5141210;27;20566;-80
2023/11/02 11:10:50;;;;;;;20.70;19.60;;;;;;;;;;5140435;27;20431;-82
2023/11/02 11:13:18;;;;;;;18.70;17.80;;;;;;;;;;5140398;27;20402;-82
2023/11/02 11:15:46;;;;;;;19.70;18.60;;;;;;;;;;5140280;27;20436;-82
2023/11/02 11:18:15;;;;;;;19.20;18.20;;;;;;;;;;5140813;27;20816;-81
2023/11/02 11:20:43;;;;;;;20.80;19.80;;;;;;;;;;5131948;27;20452;-82
2023/11/02 11:23:11;;;;;;;18.60;17.70;;;;;;;;;;5125288;27;20479;-81
2023/11/02 11:25:52;;;;;;;18.50;17.60;;;;;;;;;;5127427;27;20454;-81
2023/11/02 11:28:38;;;;;;;19.00;18.00;;;;;;;;;;5125809;27;20478;-82
2023/11/02 11:31:09;;;;;;;20.03;18.13;;;;;;;;;;5138517;27;20966;-81
2023/11/02 11:33:50;;;;;;;19.03;17.83;;;;;;;;;;5140292;27;20410;-83
2023/11/02 11:36:22;;;;;;;18.97;17.97;;;;;;;;;;5129693;27;20463;-82
2023/11/02 11:38:49;;;;;;;18.63;17.63;;;;;;;;;;5119149;28;20539;-80
2023/11/02 11:41:35;;;;;;;18.93;17.83;;;;;;;;;;5117800;28;20463;-82
2023/11/02 11:44:07;;;;;;;18.90;17.80;;;;;;;;;;5135178;27;20487;-81
2023/11/02 11:46:44;;;;;;;19.07;18.07;;;;;;;;;;5134778;27;20456;-81
2023/11/02 11:49:26;;;;;;;18.93;17.90;;;;;;;;;;5121390;27;20459;-81
2023/11/02 11:51:54;;;;;;;20.10;19.00;;;;;;;;;;5128713;27;20451;-82
2023/11/02 11:54:27;;;;;;;19.50;18.40;;;;;;;;;;5133692;27;20512;-80
2023/11/02 11:56:54;;;;;;;20.57;19.10;;;;;;;;;;5116748;28;20889;-81
2023/11/02 11:59:21;;;;;;;19.30;18.20;;;;;;;;;;5122580;27;20848;-81
2023/11/02 12:02:19;;;;;;;21.80;20.60;;;;;;;;;;5138989;27;20537;-81
2023/11/02 12:04:46;;;;;;;20.10;19.03;;;;;;;;;;5138905;27;20547;-81
2023/11/02 12:07:22;;;;;;;20.40;19.30;;;;;;;;;;5139134;27;20455;-81
2023/11/02 12:09:50;;;;;;;19.80;18.70;;;;;;;;;;5138502;27;20502;-82
2023/11/02 12:12:18;;;;;;;19.33;18.33;;;;;;;;;;5139547;27;20454;-80
2023/11/02 12:14:46;;;;;;;19.30;18.27;;;;;;;;;;5138628;27;20454;-81
2023/11/02 12:17:13;;;;;;;20.50;19.40;;;;;;;;;;5139130;27;20508;-81
2023/11/02 12:19:41;;;;;;;19.93;18.83;;;;;;;;;;5139625;27;20672;-80
2023/11/02 12:22:10;;;;;;;19.10;18.10;;;;;;;;;;5138953;27;20466;-80
2023/11/02 12:24:38;;;;;;;21.07;19.97;;;;;;;;;;5138827;27;20481;-81
2023/11/02 12:27:10;;;;;;;20.17;19.07;;;;;;;;;;5138182;27;21008;-82
2023/11/02 12:29:37;;;;;;;18.90;17.90;;;;;;;;;;5128113;27;20478;-81
2023/11/02 12:32:04;;;;;;;18.97;17.97;;;;;;;;;;5116786;28;20465;-81
2023/11/02 12:34:32;;;;;;;18.67;17.63;;;;;;;;;;5116021;27;20447;-83
2023/11/02 12:36:59;;;;;;;18.67;17.67;;;;;;;;;;5124528;27;20502;-82
2023/11/02 12:39:27;;;;;;;18.43;17.50;;;;;;;;;;5126433;27;20443;-81
2023/11/02 12:41:55;;;;;;;18.87;17.73;;;;;;;;;;5138168;27;20450;-81
2023/11/02 12:44:23;;;;;;;19.13;17.93;;;;;;;;;;5138328;27;20486;-81
2023/11/02 12:46:52;;;;;;;19.23;18.17;;;;;;;;;;5139987;27;20513;-81
2023/11/02 12:49:21;;;;;;;20.30;19.20;;;;;;;;;;5139044;27;20942;-80
2023/11/02 12:52:02;;;;;;;19.00;17.93;;;;;;;;;;5138751;27;20443;-82
2023/11/02 12:54:31;;;;;;;19.60;18.60;;;;;;;;;;5137245;27;20420;-78
2023/11/02 12:57:02;;;;;;;20.10;18.90;;;;;;;;;;5126164;27;20484;-82
2023/11/02 12:59:31;;;;;;;19.90;18.90;;;;;;;;;;5118556;28;20435;-82
2023/11/02 13:02:01;;;;;;;19.20;18.10;;;;;;;;;;5118854;28;20449;-82
2023/11/02 13:04:47;;;;;;;18.57;17.57;;;;;;;;;;5117646;28;20482;-81
2023/11/02 13:07:21;;;;;;;18.50;17.50;;;;;;;;;;5118934;28;20447;-82
2023/11/02 13:09:59;;;;;;;18.77;17.67;;;;;;;;;;5118405;28;20428;-81
2023/11/02 13:12:28;;;;;;;19.47;18.03;;;;;;;;;;5118318;28;20478;-81
2023/11/02 13:14:56;;;;;;;19.57;18.57;;;;;;;;;;5125079;28;20454;-82
2023/11/02 13:17:24;;;;;;;19.70;18.60;;;;;;;;;;5138623;28;20487;-82
2023/11/02 13:19:52;;;;;;;20.67;19.37;;;;;;;;;;5138960;28;20451;-82
2023/11/02 13:22:19;;;;;;;19.40;18.20;;;;;;;;;;5138847;28;20459;-82
2023/11/02 13:24:47;;;;;;;20.70;19.40;;;;;;;;;;5138235;28;20482;-81
2023/11/02 13:27:14;;;;;;;20.80;19.30;;;;;;;;;;5137596;27;21072;-80
2023/11/02 13:29:43;;;;;;;20.73;19.27;;;;;;;;;;5143201;27;20476;-81
2023/11/02 13:32:12;;;;;;;20.27;18.83;;;;;;;;;;5142658;27;21095;-82
2023/11/02 13:34:41;;;;;;;19.23;18.23;;;;;;;;;;5142683;27;20426;-81
2023/11/02 13:37:08;;;;;;;19.77;18.57;;;;;;;;;;5143063;27;20937;-82
2023/11/02 13:39:35;;;;;;;19.33;18.33;;;;;;;;;;5134198;27;20500;-82
2023/11/02 13:42:02;;;;;;;19.60;18.60;;;;;;;;;;5036812;27;20823;-82
2023/11/02 13:44:29;;;;;;;19.87;18.30;;;;;;;;;;5121716;27;20483;-82
2023/11/02 13:46:58;;;;;;;19.13;18.13;;;;;;;;;;5122643;27;20454;-82
2023/11/02 13:49:25;;;;;;;19.70;18.63;;;;;;;;;;5120395;28;20440;-82
2023/11/02 13:51:52;;;;;;;20.67;19.47;;;;;;;;;;5121531;28;20452;-82
2023/11/02 13:54:19;;;;;;;19.53;18.33;;;;;;;;;;5125130;27;20426;-81
2023/11/02 13:56:46;;;;;;;19.30;18.20;;;;;;;;;;5123007;27;20462;-80
2023/11/02 13:59:13;;;;;;;19.57;18.47;;;;;;;;;;5120256;28;20451;-82
2023/11/02 14:01:41;;;;;;;19.67;18.47;;;;;;;;;;5119749;28;21009;-80
2023/11/02 14:04:09;;;;;;;19.53;18.43;;;;;;;;;;5120125;27;20486;-82
2023/11/02 14:06:36;;;;;;;19.80;18.70;;;;;;;;;;5131524;27;20433;-79
2023/11/02 14:09:05;;;;;;;19.30;18.03;;;;;;;;;;5123943;27;20434;-80
2023/11/02 14:11:32;;;;;;;20.27;19.07;;;;;;;;;;5121340;28;20441;-81
2023/11/02 14:13:59;;;;;;;18.93;17.80;;;;;;;;;;5120484;28;21077;-79
2023/11/02 14:16:27;;;;;;;19.60;18.50;;;;;;;;;;5119962;28;20429;-79
2023/11/02 14:18:54;;;;;;;20.20;18.90;;;;;;;;;;5120674;28;20477;-79
2023/11/02 14:21:22;;;;;;;20.53;19.33;;;;;;;;;;5120539;28;20442;-80
2023/11/02 14:23:49;;;;;;;19.67;18.13;;;;;;;;;;5119615;28;20414;-80
2023/11/02 14:26:16;;;;;;;19.10;18.07;;;;;;;;;;5120100;28;20444;-79
2023/11/02 14:28:43;;;;;;;20.07;18.87;;;;;;;;;;5120726;28;20476;-81
2023/11/02 14:31:10;;;;;;;19.60;18.40;;;;;;;;;;5121080;28;20437;-80
2023/11/02 14:33:38;;;;;;;19.63;18.53;;;;;;;;;;5121669;28;20940;-81
2023/11/02 14:36:07;;;;;;;19.67;18.57;;;;;;;;;;5121192;28;20444;-80